Time;durP1;ratioP1;P1;durP2;ratioP2;P2;SDS_P1;SDS_P2;PMS_P1;PMS_P2;Temp;Humidity;BMP_temperature;BMP_pressure;BME280_temperature;BME280_humidity;BME280_pressure;Samples;Min_cycle;Max_cycle;Signal;HPM_P1;HPM_P2
2023/04/25 00:02:23;;;;;;;;;;;8.00;99.90;;;;;;5146154;27;19920;-68
2023/04/25 00:04:49;;;;;;;;;;;8.00;99.90;;;;;;5146119;27;20207;-68
2023/04/25 00:07:16;;;;;;;;;;;8.00;99.90;;;;;;5145663;27;19999;-69
2023/04/25 00:09:43;;;;;;;;;;;8.10;99.90;;;;;;5146385;27;19988;-69
2023/04/25 00:12:11;;;;;;;;;;;8.00;99.90;;;;;;5146012;27;20227;-68
2023/04/25 00:14:37;;;;;;;;;;;8.00;99.90;;;;;;5145868;27;19919;-69
2023/04/25 00:17:04;;;;;;;;;;;7.90;99.90;;;;;;5145240;27;19957;-68
2023/04/25 00:19:32;;;;;;;;;;;7.90;99.90;;;;;;5145741;27;19951;-69
2023/04/25 00:21:59;;;;;;;;;;;7.90;99.90;;;;;;5146099;27;19960;-68
2023/04/25 00:24:25;;;;;;;;;;;7.90;99.90;;;;;;5146016;27;19982;-68
2023/04/25 00:26:52;;;;;;;;;;;7.90;99.90;;;;;;5145102;27;20118;-68
2023/04/25 00:29:20;;;;;;;;;;;7.90;99.90;;;;;;5145691;27;19983;-69
2023/04/25 00:31:46;;;;;;;;;;;7.90;99.90;;;;;;5146054;27;19962;-68
2023/04/25 00:34:14;;;;;;;;;;;7.90;99.90;;;;;;5145181;27;19960;-68
2023/04/25 00:36:41;;;;;;;;;;;7.90;99.90;;;;;;5145368;27;19955;-68
2023/04/25 00:39:07;;;;;;;;;;;7.90;99.90;;;;;;5145828;27;20003;-68
2023/04/25 00:41:34;;;;;;;;;;;7.90;99.90;;;;;;5144947;27;19954;-68
2023/04/25 00:44:01;;;;;;;;;;;7.90;99.90;;;;;;5141556;27;19983;-69
2023/04/25 00:46:29;;;;;;;;;;;7.90;99.90;;;;;;5123025;28;19988;-69
2023/04/25 00:48:56;;;;;;;;;;;7.90;99.90;;;;;;5123971;28;19994;-69
2023/04/25 00:51:23;;;;;;;;;;;7.90;99.90;;;;;;5121905;28;20259;-68
2023/04/25 00:53:52;;;;;;;;;;;7.90;99.90;;;;;;5124017;28;20293;-69
2023/04/25 00:56:18;;;;;;;;;;;7.90;99.90;;;;;;5124218;28;19955;-69
2023/04/25 00:58:45;;;;;;;;;;;7.90;99.90;;;;;;5124836;28;19982;-69
2023/04/25 01:01:12;;;;;;;;;;;7.90;99.90;;;;;;5124725;28;19926;-68
2023/04/25 01:03:41;;;;;;;;;;;7.90;99.90;;;;;;5123386;28;19920;-68
2023/04/25 01:06:08;;;;;;;;;;;7.80;99.90;;;;;;5123779;28;20146;-68
2023/04/25 01:08:36;;;;;;;;;;;7.80;99.90;;;;;;5137313;27;19919;-68
2023/04/25 01:11:02;;;;;;;;;;;7.80;99.90;;;;;;5144892;27;19949;-72
2023/04/25 01:13:29;;;;;;;;;;;7.70;99.90;;;;;;5145159;27;19919;-69
2023/04/25 01:15:56;;;;;;;;;;;7.80;99.90;;;;;;5142312;27;20212;-69
2023/04/25 01:18:22;;;;;;;;;;;7.70;99.90;;;;;;5144480;27;20200;-69
2023/04/25 01:20:52;;;;;;;;;;;7.70;99.90;;;;;;5144949;27;19983;-68
2023/04/25 01:23:20;;;;;;;;;;;7.70;99.90;;;;;;5144985;27;19919;-69
2023/04/25 01:25:47;;;;;;;;;;;7.70;99.90;;;;;;5144806;27;19957;-68
2023/04/25 01:28:14;;;;;;;;;;;7.70;99.90;;;;;;5144399;27;20207;-69
2023/04/25 01:30:41;;;;;;;;;;;7.70;99.90;;;;;;5144619;27;19919;-68
2023/04/25 01:33:08;;;;;;;;;;;7.70;99.90;;;;;;5144798;27;20115;-69
2023/04/25 01:35:35;;;;;;;;;;;7.70;99.90;;;;;;5144795;27;19925;-70
2023/04/25 01:38:02;;;;;;;;;;;7.70;99.90;;;;;;5144004;27;20266;-70
2023/04/25 01:40:30;;;;;;;;;;;7.70;99.90;;;;;;5144819;27;19983;-68
2023/04/25 01:42:56;;;;;;;;;;;7.70;99.90;;;;;;5144407;27;19919;-68
2023/04/25 01:45:23;;;;;;;;;;;7.70;99.90;;;;;;5144256;27;19967;-69
2023/04/25 01:47:50;;;;;;;;;;;7.80;99.90;;;;;;5144095;27;19982;-69
2023/04/25 01:50:17;;;;;;;;;;;7.80;99.90;;;;;;5144846;28;19923;-68
2023/04/25 01:52:43;;;;;;;;;;;7.80;99.90;;;;;;5142420;28;19990;-68
2023/04/25 01:55:10;;;;;;;;;;;7.80;99.90;;;;;;5144704;27;20196;-69
2023/04/25 01:57:38;;;;;;;;;;;7.70;99.90;;;;;;5144104;28;19925;-69
2023/04/25 02:00:06;;;;;;;;;;;7.70;99.90;;;;;;5132744;28;19920;-68
2023/04/25 02:02:33;;;;;;;;;;;7.70;99.90;;;;;;5136959;28;20136;-68
2023/04/25 02:05:00;;;;;;;;;;;7.70;99.90;;;;;;5144267;28;20270;-69
2023/04/25 02:07:27;;;;;;;;;;;7.60;99.90;;;;;;5143671;28;19928;-69
2023/04/25 02:09:53;;;;;;;;;;;7.70;99.90;;;;;;5144421;28;19926;-68
2023/04/25 02:12:20;;;;;;;;;;;7.70;99.90;;;;;;5144500;28;20175;-72
2023/04/25 02:14:48;;;;;;;;;;;7.60;99.90;;;;;;5144485;28;20171;-69
2023/04/25 02:17:15;;;;;;;;;;;7.60;99.90;;;;;;5143324;27;20233;-68
2023/04/25 02:19:42;;;;;;;;;;;7.60;99.90;;;;;;5148299;27;19957;-68
2023/04/25 02:22:09;;;;;;;;;;;7.50;99.90;;;;;;5148406;27;19919;-67
2023/04/25 02:24:35;;;;;;;;;;;7.40;99.90;;;;;;5147246;27;19919;-68
2023/04/25 02:27:02;;;;;;;;;;;7.40;99.90;;;;;;5147910;27;19987;-69
2023/04/25 02:29:30;;;;;;;;;;;7.40;99.90;;;;;;5148339;27;20088;-69
2023/04/25 02:31:58;;;;;;;;;;;7.40;99.90;;;;;;5148247;27;19920;-68
2023/04/25 02:34:25;;;;;;;;;;;7.40;99.90;;;;;;5148338;27;19980;-68
2023/04/25 02:36:51;;;;;;;;;;;7.40;99.90;;;;;;5148004;27;19919;-69
2023/04/25 02:39:18;;;;;;;;;;;7.40;99.90;;;;;;5148137;27;20013;-68
2023/04/25 02:41:45;;;;;;;;;;;7.40;99.90;;;;;;5147944;27;19919;-69
2023/04/25 02:44:11;;;;;;;;;;;7.40;99.90;;;;;;5147639;27;19962;-70
2023/04/25 02:46:38;;;;;;;;;;;7.40;99.90;;;;;;5147328;27;19983;-68
2023/04/25 02:49:06;;;;;;;;;;;7.40;99.90;;;;;;5147935;27;20182;-68
2023/04/25 02:51:33;;;;;;;;;;;7.30;99.90;;;;;;5145259;27;19925;-69
2023/04/25 02:53:59;;;;;;;;;;;7.30;99.90;;;;;;5147610;27;19926;-69
2023/04/25 02:56:29;;;;;;;;;;;7.30;99.90;;;;;;5146754;27;19960;-69
2023/04/25 02:58:55;;;;;;;;;;;7.30;99.90;;;;;;5147647;27;19919;-69
2023/04/25 03:01:22;;;;;;;;;;;7.30;99.90;;;;;;5147717;27;19982;-69
2023/04/25 03:03:48;;;;;;;;;;;7.20;99.90;;;;;;5147476;27;19982;-68
2023/04/25 03:06:16;;;;;;;;;;;7.20;99.90;;;;;;5145876;27;19990;-68
2023/04/25 03:08:43;;;;;;;;;;;7.20;99.90;;;;;;5147471;27;19994;-69
2023/04/25 03:11:10;;;;;;;;;;;7.20;99.90;;;;;;5147536;27;19919;-69
2023/04/25 03:13:36;;;;;;;;;;;7.20;99.90;;;;;;5147593;27;19970;-69
2023/04/25 03:16:03;;;;;;;;;;;7.20;99.90;;;;;;5147332;27;19933;-68
2023/04/25 03:18:30;;;;;;;;;;;7.20;99.90;;;;;;5147375;27;19957;-68
2023/04/25 03:20:56;;;;;;;;;;;7.20;99.90;;;;;;5147330;27;19954;-69
2023/04/25 03:23:25;;;;;;;;;;;7.20;99.90;;;;;;5147316;27;19933;-69
2023/04/25 03:25:52;;;;;;;;;;;7.20;99.90;;;;;;5144496;27;19923;-69
2023/04/25 03:28:19;;;;;;;;;;;7.20;99.90;;;;;;5146408;27;19926;-69
2023/04/25 03:30:46;;;;;;;;;;;7.20;99.90;;;;;;5147087;27;19946;-69
2023/04/25 03:33:13;;;;;;;;;;;7.20;99.90;;;;;;5146761;27;19990;-69
2023/04/25 03:35:39;;;;;;;;;;;7.20;99.90;;;;;;5146781;27;19951;-69
2023/04/25 03:38:06;;;;;;;;;;;7.20;99.90;;;;;;5146654;27;19990;-68
2023/04/25 03:40:34;;;;;;;;;;;7.20;99.90;;;;;;5146689;27;20270;-72
2023/04/25 03:43:00;;;;;;;;;;;7.10;99.90;;;;;;5146157;27;19925;-70
2023/04/25 03:45:27;;;;;;;;;;;7.20;99.90;;;;;;5146575;27;20238;-68
2023/04/25 03:47:54;;;;;;;;;;;7.10;99.90;;;;;;5146205;27;20092;-68
2023/04/25 03:50:20;;;;;;;;;;;7.10;99.90;;;;;;5146488;27;19986;-69
2023/04/25 03:52:47;;;;;;;;;;;7.10;99.90;;;;;;5144283;27;19925;-69
2023/04/25 03:55:14;;;;;;;;;;;7.10;99.90;;;;;;5146544;27;19919;-69
2023/04/25 03:57:42;;;;;;;;;;;7.00;99.90;;;;;;5146034;27;19982;-68
2023/04/25 04:00:09;;;;;;;;;;;7.00;99.90;;;;;;5146543;27;20130;-68
2023/04/25 04:02:37;;;;;;;;;;;7.00;99.90;;;;;;5146074;27;19972;-68
2023/04/25 04:05:04;;;;;;;;;;;7.00;99.90;;;;;;5146175;27;20084;-68
2023/04/25 04:07:32;;;;;;;;;;;7.00;99.90;;;;;;5145364;27;19925;-68
2023/04/25 04:09:59;;;;;;;;;;;7.00;99.90;;;;;;5146234;27;19927;-68
2023/04/25 04:12:25;;;;;;;;;;;7.00;99.90;;;;;;5146266;27;20168;-68
2023/04/25 04:14:53;;;;;;;;;;;7.10;99.90;;;;;;5146034;27;20209;-69
2023/04/25 04:17:20;;;;;;;;;;;7.00;99.90;;;;;;5145726;27;19982;-69
2023/04/25 04:19:47;;;;;;;;;;;7.00;99.90;;;;;;5146162;27;19982;-68
2023/04/25 04:22:14;;;;;;;;;;;7.00;99.90;;;;;;5145840;27;19926;-68
2023/04/25 04:24:43;;;;;;;;;;;7.00;99.90;;;;;;5145129;27;19923;-68
2023/04/25 04:27:12;;;;;;;;;;;7.00;99.90;;;;;;5145651;27;19934;-68
2023/04/25 04:29:39;;;;;;;;;;;6.90;99.90;;;;;;5145912;27;19998;-68
2023/04/25 04:32:08;;;;;;;;;;;7.00;99.90;;;;;;5145819;27;19982;-68
2023/04/25 04:34:35;;;;;;;;;;;6.90;99.90;;;;;;5145917;27;19923;-69
2023/04/25 04:37:02;;;;;;;;;;;6.90;99.90;;;;;;5145189;27;19920;-69
2023/04/25 04:39:29;;;;;;;;;;;7.00;99.90;;;;;;5143180;27;19925;-69
2023/04/25 04:41:55;;;;;;;;;;;6.90;99.90;;;;;;5144849;27;19919;-68
2023/04/25 04:44:22;;;;;;;;;;;7.00;99.90;;;;;;5145811;27;19953;-68
2023/04/25 04:46:49;;;;;;;;;;;7.00;99.90;;;;;;5144978;27;19961;-68
2023/04/25 04:49:17;;;;;;;;;;;6.90;99.90;;;;;;5145073;27;20242;-67
2023/04/25 04:51:44;;;;;;;;;;;6.80;99.90;;;;;;5145507;27;20155;-67
2023/04/25 04:54:11;;;;;;;;;;;6.80;99.90;;;;;;5145543;27;19941;-68
2023/04/25 04:56:38;;;;;;;;;;;6.90;99.90;;;;;;5144852;27;19958;-68
2023/04/25 04:59:04;;;;;;;;;;;6.90;99.90;;;;;;5145551;27;20069;-67
2023/04/25 05:01:31;;;;;;;;;;;6.90;99.90;;;;;;5145216;27;19986;-69
2023/04/25 05:03:59;;;;;;;;;;;6.90;99.90;;;;;;5145313;27;19919;-67
2023/04/25 05:06:28;;;;;;;;;;;7.00;99.90;;;;;;5144489;27;20092;-68
2023/04/25 05:08:55;;;;;;;;;;;6.90;99.90;;;;;;5145111;27;19934;-68
2023/04/25 05:11:22;;;;;;;;;;;6.90;99.90;;;;;;5144707;27;20278;-68
2023/04/25 05:13:48;;;;;;;;;;;6.90;99.90;;;;;;5144899;27;19982;-68
2023/04/25 05:16:15;;;;;;;;;;;6.90;99.90;;;;;;5143789;27;19951;-70
2023/04/25 05:18:43;;;;;;;;;;;6.90;99.90;;;;;;5144169;27;19926;-66
2023/04/25 05:21:09;;;;;;;;;;;7.00;99.90;;;;;;5144659;27;19919;-68
2023/04/25 05:23:37;;;;;;;;;;;7.00;99.90;;;;;;5144126;27;19919;-67
2023/04/25 05:26:04;;;;;;;;;;;7.10;99.90;;;;;;5144683;27;20175;-67
2023/04/25 05:28:31;;;;;;;;;;;7.10;99.90;;;;;;5144489;27;19919;-69
2023/04/25 05:30:57;;;;;;;;;;;7.20;99.90;;;;;;5143027;27;19920;-67
2023/04/25 05:33:24;;;;;;;;;;;7.10;99.90;;;;;;5144703;27;19919;-70
2023/04/25 05:35:51;;;;;;;;;;;7.10;99.90;;;;;;5144289;27;19926;-69
2023/04/25 05:38:17;;;;;;;;;;;7.20;99.90;;;;;;5144401;27;19931;-69
2023/04/25 05:40:45;;;;;;;;;;;7.20;99.90;;;;;;5144694;27;19920;-69
2023/04/25 05:43:12;;;;;;;;;;;7.20;99.90;;;;;;5144674;27;19943;-70
2023/04/25 05:45:39;;;;;;;;;;;7.20;99.90;;;;;;5144114;27;20245;-69
2023/04/25 05:48:05;;;;;;;;;;;7.20;99.90;;;;;;5144309;28;20253;-68
2023/04/25 05:50:32;;;;;;;;;;;7.20;99.90;;;;;;5144102;28;19919;-69
2023/04/25 05:52:59;;;;;;;;;;;7.30;99.90;;;;;;5150119;27;19927;-68
2023/04/25 05:55:25;;;;;;;;;;;7.30;99.90;;;;;;5151162;27;19920;-69
2023/04/25 05:57:53;;;;;;;;;;;7.40;99.90;;;;;;5151004;27;19926;-69
2023/04/25 06:00:22;;;;;;;;;;;7.40;99.90;;;;;;5151336;27;20092;-69
2023/04/25 06:02:49;;;;;;;;;;;7.30;99.90;;;;;;5150810;27;19957;-69
2023/04/25 06:05:15;;;;;;;;;;;7.30;99.90;;;;;;5150774;27;19970;-69
2023/04/25 06:07:42;;;;;;;;;;;7.30;99.90;;;;;;5150567;27;20270;-68
2023/04/25 06:10:09;;;;;;;;;;;7.30;99.90;;;;;;5150945;27;19926;-68
2023/04/25 06:12:36;;;;;;;;;;;7.30;99.90;;;;;;5151093;27;20222;-70
2023/04/25 06:15:04;;;;;;;;;;;7.30;99.90;;;;;;5151281;27;19919;-68
2023/04/25 06:17:31;;;;;;;;;;;7.20;99.90;;;;;;5148109;27;19962;-68
2023/04/25 06:19:58;;;;;;;;;;;7.10;99.90;;;;;;5151460;27;19957;-69
2023/04/25 06:22:24;;;;;;;;;;;7.10;99.90;;;;;;5151182;27;20190;-68
2023/04/25 06:24:51;;;;;;;;;;;7.10;99.90;;;;;;5148096;27;20204;-68
2023/04/25 06:27:17;;;;;;;;;;;7.20;99.90;;;;;;5150485;27;19919;-68
2023/04/25 06:29:44;;;;;;;;;;;7.20;99.90;;;;;;5150883;27;20289;-69
2023/04/25 06:32:12;;;;;;;;;;;7.20;99.90;;;;;;5151174;27;19979;-69
2023/04/25 06:34:39;;;;;;;;;;;7.10;99.90;;;;;;5151174;27;19978;-69
2023/04/25 06:37:05;;;;;;;;;;;7.10;99.90;;;;;;5150592;27;19920;-69
2023/04/25 06:39:32;;;;;;;;;;;7.10;99.90;;;;;;5150871;27;19987;-69
2023/04/25 06:41:58;;;;;;;;;;;7.10;99.90;;;;;;5151065;27;20151;-68
2023/04/25 06:44:26;;;;;;;;;;;7.20;99.90;;;;;;5149694;27;19957;-68
2023/04/25 06:46:52;;;;;;;;;;;7.20;99.90;;;;;;5140924;27;19919;-68
2023/04/25 06:49:20;;;;;;;;;;;7.10;99.90;;;;;;5137192;27;19927;-69
2023/04/25 06:51:47;;;;;;;;;;;7.10;99.90;;;;;;5151032;27;19954;-68
2023/04/25 06:54:14;;;;;;;;;;;7.10;99.90;;;;;;5138489;27;20187;-69
2023/04/25 06:56:41;;;;;;;;;;;7.10;99.90;;;;;;5127136;28;20220;-68
2023/04/25 06:59:07;;;;;;;;;;;7.00;99.90;;;;;;5129934;28;20110;-69
2023/04/25 07:01:35;;;;;;;;;;;7.10;99.90;;;;;;5137847;27;19991;-69
2023/04/25 07:04:01;;;;;;;;;;;7.10;99.90;;;;;;5127307;28;19919;-69
2023/04/25 07:06:30;;;;;;;;;;;7.10;99.90;;;;;;5130485;27;20041;-69
2023/04/25 07:08:57;;;;;;;;;;;7.10;99.90;;;;;;5147636;27;19919;-69
2023/04/25 07:11:24;;;;;;;;;;;7.10;99.90;;;;;;5147257;27;19962;-69
2023/04/25 07:13:50;;;;;;;;;;;7.00;99.90;;;;;;5147294;27;19925;-68
2023/04/25 07:16:17;;;;;;;;;;;6.90;99.90;;;;;;5146484;27;19986;-69
2023/04/25 07:18:44;;;;;;;;;;;7.00;99.90;;;;;;5144359;27;19919;-69
2023/04/25 07:21:11;;;;;;;;;;;6.90;99.90;;;;;;5124313;28;19919;-68
2023/04/25 07:23:40;;;;;;;;;;;6.90;99.90;;;;;;5137024;27;19926;-68
2023/04/25 07:26:07;;;;;;;;;;;6.80;99.90;;;;;;5143515;27;19919;-69
2023/04/25 07:28:34;;;;;;;;;;;6.90;99.90;;;;;;5147116;27;20160;-69
2023/04/25 07:31:01;;;;;;;;;;;6.90;99.90;;;;;;5146853;27;19956;-69
2023/04/25 07:33:27;;;;;;;;;;;6.90;99.90;;;;;;5147151;27;20003;-69
2023/04/25 07:35:54;;;;;;;;;;;6.90;99.90;;;;;;5146821;27;19986;-69
2023/04/25 07:38:21;;;;;;;;;;;6.90;99.90;;;;;;5146728;27;19925;-69
2023/04/25 07:40:49;;;;;;;;;;;7.00;99.90;;;;;;5146924;27;19958;-69
2023/04/25 07:43:16;;;;;;;;;;;7.00;99.90;;;;;;5146869;27;19919;-69
2023/04/25 07:45:43;;;;;;;;;;;7.10;99.90;;;;;;5146566;27;19932;-69
2023/04/25 07:48:09;;;;;;;;;;;7.10;99.90;;;;;;5146197;27;19990;-68
2023/04/25 07:50:36;;;;;;;;;;;7.20;99.90;;;;;;5146783;27;19990;-69
2023/04/25 07:53:03;;;;;;;;;;;7.40;99.90;;;;;;5141956;27;19947;-69
2023/04/25 07:55:30;;;;;;;;;;;7.40;99.90;;;;;;5125748;28;19987;-69
2023/04/25 07:57:58;;;;;;;;;;;7.50;99.90;;;;;;5141874;27;19983;-69
2023/04/25 08:00:25;;;;;;;;;;;7.50;99.90;;;;;;5144037;27;20207;-69
2023/04/25 08:02:51;;;;;;;;;;;7.60;99.90;;;;;;5164224;27;21722;-68
2023/04/25 08:05:18;;;;;;;;;;;7.60;99.90;;;;;;5146455;27;19923;-69
2023/04/25 08:07:45;;;;;;;;;;;7.60;99.90;;;;;;5145514;27;19926;-69
2023/04/25 08:10:11;;;;;;;;;;;7.70;99.90;;;;;;5146305;27;20172;-69
2023/04/25 08:12:38;;;;;;;;;;;7.70;99.90;;;;;;5145920;27;20237;-69
2023/04/25 08:15:07;;;;;;;;;;;7.80;99.90;;;;;;5124337;28;19919;-69
2023/04/25 08:17:33;;;;;;;;;;;7.80;99.90;;;;;;5125116;28;20138;-69
2023/04/25 08:20:00;;;;;;;;;;;7.90;99.90;;;;;;5125280;28;19958;-68
2023/04/25 08:22:27;;;;;;;;;;;7.90;99.90;;;;;;5136279;27;19986;-68
2023/04/25 08:24:53;;;;;;;;;;;7.90;99.90;;;;;;5146114;27;19925;-69
2023/04/25 08:27:21;;;;;;;;;;;7.90;99.90;;;;;;5144857;27;20166;-68
2023/04/25 08:29:48;;;;;;;;;;;8.00;99.90;;;;;;5145856;27;19919;-68
2023/04/25 08:32:15;;;;;;;;;;;8.00;99.90;;;;;;5145757;27;20177;-67
2023/04/25 08:34:43;;;;;;;;;;;8.00;99.90;;;;;;5145545;27;19919;-67
2023/04/25 08:37:10;;;;;;;;;;;8.10;99.90;;;;;;5145314;27;19982;-69
2023/04/25 08:39:37;;;;;;;;;;;8.10;99.90;;;;;;5145522;27;19920;-69
2023/04/25 08:42:07;;;;;;;;;;;8.20;99.90;;;;;;5145761;27;19951;-69
2023/04/25 08:44:34;;;;;;;;;;;8.40;99.90;;;;;;5145532;27;20159;-69
2023/04/25 08:47:01;;;;;;;;;;;8.50;99.90;;;;;;5144734;27;19920;-69
2023/04/25 08:49:29;;;;;;;;;;;8.60;99.90;;;;;;5145723;27;20176;-68
2023/04/25 08:51:59;;;;;;;;;;;8.60;99.90;;;;;;5136558;27;19926;-69
2023/04/25 08:54:27;;;;;;;;;;;8.70;99.90;;;;;;5124911;28;19990;-70
2023/04/25 08:56:55;;;;;;;;;;;8.70;99.90;;;;;;5124145;28;19920;-70
2023/04/25 08:59:23;;;;;;;;;;;8.70;99.90;;;;;;5122615;28;19954;-69
2023/04/25 09:01:50;;;;;;;;;;;8.70;99.90;;;;;;5124486;28;19926;-68
2023/04/25 09:04:16;;;;;;;;;;;8.80;99.90;;;;;;5124561;28;19920;-69
2023/04/25 09:06:45;;;;;;;;;;;8.90;99.90;;;;;;5123935;28;19990;-69
2023/04/25 09:09:12;;;;;;;;;;;9.10;99.90;;;;;;5124661;28;19951;-69
2023/04/25 09:11:38;;;;;;;;;;;9.20;99.90;;;;;;5124368;28;20002;-68
2023/04/25 09:14:12;;;;;;;;;;;9.20;99.90;;;;;;5124484;28;19965;-69
2023/04/25 09:16:57;;;;;;;;;;;9.20;99.90;;;;;;5123736;28;19965;-69
2023/04/25 09:19:25;;;;;;;;;;;9.20;99.90;;;;;;5124422;28;19924;-69
2023/04/25 09:21:54;;;;;;;;;;;9.30;99.90;;;;;;5131101;27;19919;-70
2023/04/25 09:24:30;;;;;;;;;;;9.30;99.90;;;;;;5144557;27;19956;-68
2023/04/25 09:26:59;;;;;;;;;;;9.40;99.90;;;;;;5141377;27;19982;-68
2023/04/25 09:29:32;;;;;;;;;;;9.40;99.90;;;;;;5145101;27;19986;-69
2023/04/25 09:32:12;;;;;;;;;;;9.50;99.90;;;;;;5144734;27;19926;-71
2023/04/25 09:34:39;;;;;;;;;;;9.50;99.90;;;;;;5144731;27;19926;-69
2023/04/25 09:37:07;;;;;;;;;;;9.60;99.90;;;;;;5144319;27;19919;-69
2023/04/25 09:39:34;;;;;;;;;;;9.70;99.90;;;;;;5144866;27;19986;-69
2023/04/25 09:42:01;;;;;;;;;;;9.80;99.90;;;;;;5137743;27;19925;-71
2023/04/25 09:44:28;;;;;;;;;;;9.80;99.90;;;;;;5137663;27;19953;-69
2023/04/25 09:46:54;;;;;;;;;;;9.90;99.90;;;;;;5142687;27;20183;-69
2023/04/25 09:49:21;;;;;;;;;;;9.80;99.90;;;;;;5143451;27;19962;-69
2023/04/25 09:51:54;;;;;;;;;;;9.90;99.90;;;;;;5121794;28;19928;-69
2023/04/25 09:54:22;;;;;;;;;;;9.90;99.90;;;;;;5139592;28;20147;-69
2023/04/25 09:56:51;;;;;;;;;;;10.00;99.90;;;;;;5143557;28;19962;-71
2023/04/25 09:59:20;;;;;;;;;;;10.10;99.90;;;;;;5131486;28;19987;-69
2023/04/25 10:01:47;;;;;;;;;;;10.10;99.90;;;;;;5123965;28;19919;-69
2023/04/25 10:04:16;;;;;;;;;;;10.10;99.90;;;;;;5123928;28;19982;-69
2023/04/25 10:06:43;;;;;;;;;;;10.20;99.90;;;;;;5135354;28;19983;-68
2023/04/25 10:09:10;;;;;;;;;;;10.30;99.90;;;;;;5144298;28;19960;-68
2023/04/25 10:11:39;;;;;;;;;;;10.40;99.90;;;;;;5144496;28;19919;-69
2023/04/25 10:14:06;;;;;;;;;;;10.30;99.90;;;;;;5126739;28;19919;-69
2023/04/25 10:16:33;;;;;;;;;;;10.50;99.90;;;;;;5137858;28;19919;-69
2023/04/25 10:18:59;;;;;;;;;;;10.60;99.90;;;;;;5144468;28;20001;-69
2023/04/25 10:21:28;;;;;;;;;;;10.40;99.90;;;;;;5144320;28;19982;-68
2023/04/25 10:23:55;;;;;;;;;;;10.50;99.90;;;;;;5144342;28;19926;-68
2023/04/25 10:26:22;;;;;;;;;;;10.60;99.90;;;;;;5141304;28;19923;-68
2023/04/25 10:29:00;;;;;;;;;;;10.60;99.90;;;;;;5144107;28;19919;-69
2023/04/25 10:31:27;;;;;;;;;;;10.60;99.90;;;;;;5144132;28;19963;-69
2023/04/25 10:33:54;;;;;;;;;;;10.70;99.90;;;;;;5144276;28;19920;-70
2023/04/25 10:36:22;;;;;;;;;;;10.70;99.90;;;;;;5144127;28;19919;-69
2023/04/25 10:38:50;;;;;;;;;;;10.90;99.90;;;;;;5144714;27;19920;-69
2023/04/25 10:41:18;;;;;;;;;;;11.00;99.90;;;;;;5148148;27;20168;-71
2023/04/25 10:43:45;;;;;;;;;;;11.00;99.90;;;;;;5147579;27;19926;-69
2023/04/25 10:46:17;;;;;;;;;;;11.20;99.90;;;;;;5147840;27;20069;-67
2023/04/25 10:48:49;;;;;;;;;;;11.30;99.90;;;;;;5148008;27;19920;-69
2023/04/25 10:51:22;;;;;;;;;;;11.20;99.90;;;;;;5125760;27;19982;-70
2023/04/25 10:53:59;;;;;;;;;;;11.30;99.90;;;;;;5127327;28;19963;-69
2023/04/25 10:56:30;;;;;;;;;;;11.30;99.90;;;;;;5126847;28;19920;-69
2023/04/25 10:59:09;;;;;;;;;;;11.50;99.90;;;;;;5127317;28;19958;-69
2023/04/25 11:01:39;;;;;;;;;;;11.60;99.90;;;;;;5126841;28;19920;-69
2023/04/25 11:04:05;;;;;;;;;;;11.60;99.90;;;;;;5126681;28;19919;-68
2023/04/25 11:06:37;;;;;;;;;;;11.70;99.90;;;;;;5125987;28;19934;-69
2023/04/25 11:09:03;;;;;;;;;;;11.70;99.90;;;;;;5126689;28;19941;-70
2023/04/25 11:11:31;;;;;;;;;;;11.70;99.90;;;;;;5126589;28;19926;-69
2023/04/25 11:13:57;;;;;;;;;;;11.60;99.90;;;;;;5145623;27;19927;-70
2023/04/25 11:16:25;;;;;;;;;;;11.50;99.90;;;;;;5145699;27;19986;-70
2023/04/25 11:18:53;;;;;;;;;;;11.20;99.90;;;;;;5147000;27;19949;-69
2023/04/25 11:21:19;;;;;;;;;;;11.20;99.90;;;;;;5146810;27;20261;-69
2023/04/25 11:23:46;;;;;;;;;;;11.00;99.90;;;;;;5146821;27;19982;-70
2023/04/25 11:26:14;;;;;;;;;;;11.00;99.90;;;;;;5144751;27;19941;-68
2023/04/25 11:28:41;;;;;;;;;;;11.00;99.90;;;;;;5147275;27;19970;-69
2023/04/25 11:31:09;;;;;;;;;;;11.00;99.90;;;;;;5140257;27;19994;-69
2023/04/25 11:33:36;;;;;;;;;;;11.00;99.90;;;;;;5147420;27;19987;-69
2023/04/25 11:36:05;;;;;;;;;;;11.10;99.90;;;;;;5139893;27;19957;-68
2023/04/25 11:38:32;;;;;;;;;;;11.10;99.90;;;;;;5143187;27;19920;-68
2023/04/25 11:41:00;;;;;;;;;;;11.10;99.90;;;;;;5137349;27;20169;-69
2023/04/25 11:43:27;;;;;;;;;;;11.10;99.90;;;;;;5125946;28;19986;-69
2023/04/25 11:45:53;;;;;;;;;;;11.20;99.90;;;;;;5125890;28;19934;-69
2023/04/25 11:48:21;;;;;;;;;;;11.20;99.90;;;;;;5125901;28;19926;-68
2023/04/25 11:50:47;;;;;;;;;;;11.20;99.90;;;;;;5125637;28;19962;-69
2023/04/25 11:53:18;;;;;;;;;;;11.30;99.90;;;;;;5126133;28;19926;-69
2023/04/25 11:55:45;;;;;;;;;;;11.30;99.90;;;;;;5125703;28;19986;-70
2023/04/25 11:58:13;;;;;;;;;;;11.30;99.90;;;;;;5125657;28;19942;-69
2023/04/25 12:00:42;;;;;;;;;;;11.30;99.90;;;;;;5125917;28;19920;-69
2023/04/25 12:03:10;;;;;;;;;;;11.20;99.90;;;;;;5125860;28;19941;-70
2023/04/25 12:05:37;;;;;;;;;;;11.20;99.90;;;;;;5133542;27;19919;-69
2023/04/25 12:08:10;;;;;;;;;;;11.10;99.90;;;;;;5145513;27;19927;-69
2023/04/25 12:10:40;;;;;;;;;;;11.00;99.90;;;;;;5146081;27;19961;-71
2023/04/25 12:13:20;;;;;;;;;;;11.00;99.90;;;;;;5145676;27;20200;-69
2023/04/25 12:15:46;;;;;;;;;;;11.00;99.90;;;;;;5145586;27;19991;-68
2023/04/25 12:18:13;;;;;;;;;;;11.20;99.90;;;;;;5145384;27;19919;-68
2023/04/25 12:20:40;;;;;;;;;;;11.20;99.90;;;;;;5145807;27;19926;-68
2023/04/25 12:23:07;;;;;;;;;;;11.40;99.90;;;;;;5145320;27;20328;-67
2023/04/25 12:25:39;;;;;;;;;;;11.20;99.90;;;;;;5145727;27;19919;-69
2023/04/25 12:28:15;;;;;;;;;;;11.20;99.90;;;;;;5145140;27;19920;-68
2023/04/25 12:30:55;;;;;;;;;;;11.10;99.90;;;;;;5144792;27;19947;-68
2023/04/25 12:33:21;;;;;;;;;;;11.10;99.90;;;;;;5144544;27;20313;-69
2023/04/25 12:35:48;;;;;;;;;;;11.00;99.90;;;;;;5125040;28;19987;-69
2023/04/25 12:38:21;;;;;;;;;;;11.00;99.90;;;;;;5141391;27;19926;-69
2023/04/25 12:40:49;;;;;;;;;;;10.80;99.90;;;;;;5143270;27;19991;-73
2023/04/25 12:43:15;;;;;;;;;;;10.80;99.90;;;;;;5143019;27;20004;-70
2023/04/25 12:45:42;;;;;;;;;;;10.80;99.90;;;;;;5132165;27;19955;-70
2023/04/25 12:48:09;;;;;;;;;;;10.80;99.90;;;;;;5145341;27;19986;-70
2023/04/25 12:50:36;;;;;;;;;;;10.80;99.90;;;;;;5145546;27;19951;-69
2023/04/25 12:53:03;;;;;;;;;;;10.70;99.90;;;;;;5131800;27;19982;-69
2023/04/25 12:55:30;;;;;;;;;;;10.70;99.90;;;;;;5124739;28;19919;-69
2023/04/25 12:57:58;;;;;;;;;;;10.70;99.90;;;;;;5138045;27;19919;-69
2023/04/25 13:00:26;;;;;;;;;;;10.70;99.90;;;;;;5145438;27;19982;-70
2023/04/25 13:02:52;;;;;;;;;;;10.60;99.90;;;;;;5143429;27;19926;-70
2023/04/25 13:05:19;;;;;;;;;;;10.50;99.90;;;;;;5145025;27;20279;-69
2023/04/25 13:07:47;;;;;;;;;;;10.50;99.90;;;;;;5142941;27;19991;-69
2023/04/25 13:10:13;;;;;;;;;;;10.30;99.90;;;;;;5145182;27;19919;-70
2023/04/25 13:12:40;;;;;;;;;;;10.30;99.90;;;;;;5142044;27;20002;-70
2023/04/25 13:15:11;;;;;;;;;;;10.40;99.90;;;;;;5144897;27;20027;-69
2023/04/25 13:17:37;;;;;;;;;;;10.40;99.90;;;;;;5139213;27;19927;-70
2023/04/25 13:20:08;;;;;;;;;;;10.50;99.90;;;;;;5137135;27;19926;-69
2023/04/25 13:22:38;;;;;;;;;;;10.50;99.90;;;;;;5142666;27;19954;-70
2023/04/25 13:25:05;;;;;;;;;;;10.50;99.90;;;;;;5143378;27;19991;-69
2023/04/25 13:27:33;;;;;;;;;;;10.60;99.90;;;;;;5132810;27;19926;-69
2023/04/25 13:30:00;;;;;;;;;;;10.60;99.90;;;;;;5134374;27;19919;-69
2023/04/25 13:32:28;;;;;;;;;;;10.70;99.90;;;;;;5144517;27;20290;-69
2023/04/25 13:34:55;;;;;;;;;;;10.70;99.90;;;;;;5129418;27;19980;-69
2023/04/25 13:37:23;;;;;;;;;;;10.60;99.90;;;;;;5123916;28;20115;-70
2023/04/25 13:39:50;;;;;;;;;;;10.70;99.90;;;;;;5124375;27;20215;-69
2023/04/25 13:42:17;;;;;;;;;;;10.80;99.90;;;;;;5144627;27;20006;-69
2023/04/25 13:44:44;;;;;;;;;;;10.90;99.90;;;;;;5144230;27;20178;-67
2023/04/25 13:47:10;;;;;;;;;;;11.00;99.90;;;;;;5144881;27;19984;-67
2023/04/25 13:49:38;;;;;;;;;;;11.00;99.90;;;;;;5149895;27;19926;-67
2023/04/25 13:52:05;;;;;;;;;;;10.90;99.90;;;;;;5157356;27;20106;-67
2023/04/25 13:54:31;;;;;;;;;;;10.80;99.90;;;;;;5164621;27;19954;-67
2023/04/25 13:56:59;;;;;;;;;;;10.80;99.90;;;;;;5156308;27;19950;-67
2023/04/25 13:59:26;;;;;;;;;;;10.70;99.90;;;;;;5153968;27;19955;-67
2023/04/25 14:01:52;;;;;;;;;;;10.80;99.90;;;;;;5152928;27;20139;-67
2023/04/25 14:04:19;;;;;;;;;;;10.90;99.90;;;;;;5156140;27;20227;-67
2023/04/25 14:06:47;;;;;;;;;;;11.00;99.90;;;;;;5163623;27;20261;-67
2023/04/25 14:09:15;;;;;;;;;;;11.00;99.90;;;;;;5160001;27;19986;-67
2023/04/25 14:11:41;;;;;;;;;;;11.00;99.90;;;;;;5163693;27;19926;-67
2023/04/25 14:14:08;;;;;;;;;;;10.90;99.90;;;;;;5168714;27;20310;-67
2023/04/25 14:16:35;;;;;;;;;;;11.00;99.90;;;;;;5166005;27;19927;-67
2023/04/25 14:19:02;;;;;;;;;;;11.10;99.90;;;;;;5164245;27;19986;-66
2023/04/25 14:21:31;;;;;;;;;;;11.20;99.90;;;;;;5148556;27;20141;-67
2023/04/25 14:23:59;;;;;;;;;;;11.40;99.90;;;;;;5160435;27;19964;-67
2023/04/25 14:26:26;;;;;;;;;;;11.90;99.90;;;;;;5167204;27;20229;-67
2023/04/25 14:28:53;;;;;;;;;;;12.20;99.90;;;;;;5155086;27;20299;-67